createdAt,value
2022-09-15T00:01:57.666Z,2.63
2022-09-15T00:04:24.148Z,3.00
2022-09-15T00:06:50.636Z,3.00
2022-09-15T00:09:17.053Z,3.20
2022-09-15T00:11:43.470Z,3.05
2022-09-15T00:14:10.025Z,3.35
2022-09-15T00:16:37.209Z,3.35
2022-09-15T00:19:06.497Z,3.88
2022-09-15T00:21:35.253Z,3.40
2022-09-15T00:24:02.573Z,3.03
2022-09-15T00:26:30.758Z,3.20
2022-09-15T00:28:58.904Z,2.95
2022-09-15T00:31:26.963Z,2.75
2022-09-15T00:33:55.616Z,2.80
2022-09-15T00:36:24.184Z,2.90
2022-09-15T00:38:51.034Z,2.78
2022-09-15T00:41:20.625Z,3.33
2022-09-15T00:43:50.350Z,2.80
2022-09-15T00:46:19.815Z,2.73
2022-09-15T00:49:13.267Z,3.17
2022-09-15T00:51:42.835Z,2.80
2022-09-15T00:54:16.228Z,3.60
2022-09-15T00:56:44.059Z,3.50
2022-09-15T00:59:17.019Z,3.42
2022-09-15T01:01:46.058Z,3.30
2022-09-15T01:04:14.997Z,3.05
2022-09-15T01:06:49.050Z,3.05
2022-09-15T01:09:28.581Z,3.03
2022-09-15T01:11:55.436Z,3.05
2022-09-15T01:14:21.859Z,3.20
2022-09-15T01:16:48.541Z,3.20
2022-09-15T01:19:21.987Z,2.67
2022-09-15T01:21:59.213Z,2.92
2022-09-15T01:24:40.910Z,3.78
2022-09-15T01:27:41.613Z,2.70
2022-09-15T01:30:12.956Z,2.75
2022-09-15T01:33:03.959Z,2.88
2022-09-15T01:35:35.284Z,3.30
2022-09-15T01:38:09.804Z,2.72
2022-09-15T01:40:44.818Z,3.20
2022-09-15T01:43:12.263Z,2.70
2022-09-15T01:45:43.183Z,3.20
2022-09-15T01:48:10.962Z,2.80
2022-09-15T01:50:47.098Z,2.90
2022-09-15T01:53:17.868Z,3.30
2022-09-15T01:55:54.254Z,2.80
2022-09-15T01:58:21.393Z,3.40
2022-09-15T02:00:59.017Z,3.20
2022-09-15T02:04:04.457Z,3.38
2022-09-15T02:06:40.667Z,3.63
2022-09-15T02:09:18.034Z,4.00
2022-09-15T02:11:57.838Z,3.58
2022-09-15T02:14:55.997Z,3.50
2022-09-15T02:17:25.186Z,3.15
2022-09-15T02:19:57.001Z,3.40
2022-09-15T02:22:31.899Z,3.50
2022-09-15T02:25:02.903Z,3.42
2022-09-15T02:27:32.986Z,2.85
2022-09-15T02:30:09.279Z,3.10
2022-09-15T02:32:38.829Z,3.08
2022-09-15T02:35:09.192Z,3.10
2022-09-15T02:37:37.047Z,3.35
2022-09-15T02:40:04.206Z,2.83
2022-09-15T02:42:32.159Z,2.67
2022-09-15T02:44:59.535Z,2.70
2022-09-15T02:47:28.202Z,3.45
2022-09-15T02:49:55.631Z,2.58
2022-09-15T02:52:22.215Z,2.85
2022-09-15T02:54:49.038Z,3.00
2022-09-15T02:57:15.591Z,2.40
2022-09-15T03:00:00.637Z,2.90
2022-09-15T03:02:27.461Z,3.28
2022-09-15T03:04:53.949Z,3.47
2022-09-15T03:07:20.544Z,3.55
2022-09-15T03:09:47.249Z,3.08
2022-09-15T03:12:13.815Z,3.88
2022-09-15T03:14:40.201Z,3.35
2022-09-15T03:17:06.676Z,3.20
2022-09-15T03:19:33.067Z,3.90
2022-09-15T03:21:59.521Z,3.97
2022-09-15T03:24:25.974Z,4.00
2022-09-15T03:26:52.524Z,3.70
2022-09-15T03:29:18.975Z,4.03
2022-09-15T03:31:45.513Z,3.80
2022-09-15T03:34:12.038Z,3.83
2022-09-15T03:36:38.517Z,4.25
2022-09-15T03:39:05.036Z,3.97
2022-09-15T03:41:31.487Z,4.05
2022-09-15T03:43:57.933Z,3.75
2022-09-15T03:46:24.372Z,3.53
2022-09-15T03:48:50.828Z,4.07
2022-09-15T03:51:17.269Z,4.20
2022-09-15T03:53:43.762Z,3.78
2022-09-15T03:56:14.039Z,3.65
2022-09-15T03:58:40.604Z,3.70
2022-09-15T04:01:07.429Z,3.88
2022-09-15T04:03:36.519Z,3.60
2022-09-15T04:06:05.422Z,3.85
2022-09-15T04:08:31.969Z,3.13
2022-09-15T04:10:59.128Z,3.80
2022-09-15T04:13:28.703Z,3.22
2022-09-15T04:16:04.430Z,3.57
2022-09-15T04:18:31.089Z,3.70
2022-09-15T04:21:02.182Z,3.80
2022-09-15T04:23:28.682Z,3.60
2022-09-15T04:25:56.993Z,3.45
2022-09-15T04:28:28.017Z,3.97
2022-09-15T04:31:04.202Z,3.97
2022-09-15T04:33:30.925Z,4.40
2022-09-15T04:36:01.965Z,3.88
2022-09-15T04:38:29.332Z,3.97
2022-09-15T04:40:56.353Z,3.85
2022-09-15T04:43:22.905Z,4.13
2022-09-15T04:45:49.560Z,4.00
2022-09-15T04:48:16.073Z,4.55
2022-09-15T04:50:42.640Z,4.07
2022-09-15T04:53:09.497Z,4.40
2022-09-15T04:55:36.366Z,4.25
2022-09-15T04:58:03.704Z,4.60
2022-09-15T05:00:32.094Z,4.72
2022-09-15T05:02:59.460Z,4.32
2022-09-15T05:05:27.040Z,4.90
2022-09-15T05:07:53.536Z,4.25
2022-09-15T05:10:20.117Z,4.57
2022-09-15T05:12:46.700Z,4.68
2022-09-15T05:15:13.221Z,4.80
2022-09-15T05:17:39.633Z,4.30
2022-09-15T05:20:06.343Z,4.45
2022-09-15T05:22:32.922Z,5.45
2022-09-15T05:24:59.290Z,5.35
2022-09-15T05:27:25.763Z,5.43
2022-09-15T05:30:04.352Z,5.38
2022-09-15T05:32:38.677Z,4.80
2022-09-15T05:35:06.832Z,5.20
2022-09-15T05:37:33.792Z,5.80
2022-09-15T05:40:00.253Z,5.25
2022-09-15T05:42:30.117Z,4.57
2022-09-15T05:44:56.559Z,4.67
2022-09-15T05:47:23.765Z,5.00
2022-09-15T05:49:50.231Z,4.78
2022-09-15T05:52:16.779Z,5.32
2022-09-15T05:54:43.167Z,5.25
2022-09-15T05:57:09.641Z,4.53
2022-09-15T05:59:38.671Z,4.97
2022-09-15T06:02:05.722Z,4.57
2022-09-15T06:04:32.284Z,4.32
2022-09-15T06:06:58.978Z,4.28
2022-09-15T06:09:26.273Z,4.35
2022-09-15T06:11:53.354Z,4.32
2022-09-15T06:14:19.805Z,4.35
2022-09-15T06:16:46.233Z,4.30
2022-09-15T06:19:12.677Z,4.15
2022-09-15T06:21:39.137Z,4.32
2022-09-15T06:24:06.988Z,5.10
2022-09-15T06:26:34.422Z,4.38
2022-09-15T06:29:02.843Z,4.18
2022-09-15T06:31:34.215Z,4.20
2022-09-15T06:34:01.724Z,4.60
2022-09-15T06:36:30.691Z,4.60
2022-09-15T06:38:58.499Z,4.68
2022-09-15T06:41:25.079Z,4.38
2022-09-15T06:43:52.172Z,4.20
2022-09-15T06:46:25.213Z,4.43
2022-09-15T06:48:52.179Z,3.95
2022-09-15T06:51:20.455Z,4.07
2022-09-15T06:53:47.275Z,3.33
2022-09-15T06:56:16.486Z,3.40
2022-09-15T06:58:44.190Z,3.40
2022-09-15T07:01:13.886Z,3.90
2022-09-15T07:03:42.994Z,3.78
2022-09-15T07:06:11.890Z,3.47
2022-09-15T07:08:39.480Z,3.42
2022-09-15T07:11:06.460Z,3.20
2022-09-15T07:13:32.950Z,3.65
2022-09-15T07:16:05.408Z,2.95
2022-09-15T07:18:32.688Z,3.92
2022-09-15T07:21:05.851Z,3.20
2022-09-15T07:23:33.894Z,3.60
2022-09-15T07:26:11.920Z,3.53
2022-09-15T07:28:40.321Z,3.80
2022-09-15T07:31:09.063Z,3.70
2022-09-15T07:33:36.623Z,2.88
2022-09-15T07:36:05.980Z,3.20
2022-09-15T07:38:33.246Z,3.13
2022-09-15T07:41:08.276Z,3.40
2022-09-15T07:43:34.870Z,3.03
2022-09-15T07:46:02.485Z,3.00
2022-09-15T07:48:29.420Z,2.50
2022-09-15T07:50:55.817Z,2.60
2022-09-15T07:53:35.235Z,2.65
2022-09-15T07:56:01.789Z,2.75
2022-09-15T07:58:28.569Z,2.88
2022-09-15T08:00:55.109Z,3.28
2022-09-15T08:03:21.727Z,2.50
2022-09-15T08:05:48.190Z,2.40
2022-09-15T08:08:14.608Z,2.03
2022-09-15T08:10:41.783Z,2.55
2022-09-15T08:13:08.803Z,2.83
2022-09-15T08:15:37.313Z,2.55
2022-09-15T08:18:04.269Z,3.30
2022-09-15T08:20:31.803Z,3.38
2022-09-15T08:22:58.285Z,4.22
2022-09-15T08:25:25.056Z,4.45
2022-09-15T08:27:53.733Z,4.60
2022-09-15T08:30:21.020Z,5.25
2022-09-15T08:32:47.747Z,5.40
2022-09-15T08:35:14.843Z,4.60
2022-09-15T08:37:41.597Z,4.38
2022-09-15T08:40:20.907Z,3.40
2022-09-15T08:42:50.468Z,2.80
2022-09-15T08:45:23.041Z,3.17
2022-09-15T08:47:56.137Z,2.30
2022-09-15T08:50:23.039Z,2.97
2022-09-15T08:52:55.722Z,2.22
2022-09-15T08:55:38.660Z,2.40
2022-09-15T08:58:05.987Z,2.90
2022-09-15T09:00:33.358Z,2.53
2022-09-15T09:03:26.336Z,2.40
2022-09-15T09:06:19.927Z,2.35
2022-09-15T09:09:00.148Z,2.08
2022-09-15T09:11:36.428Z,1.55
2022-09-15T09:14:18.922Z,2.47
2022-09-15T09:17:21.015Z,1.90
2022-09-15T09:20:02.234Z,1.50
2022-09-15T09:22:35.882Z,1.55
2022-09-15T09:25:21.249Z,1.10
2022-09-15T09:27:50.849Z,1.48
2022-09-15T09:30:23.241Z,1.50
2022-09-15T09:32:56.236Z,1.83
2022-09-15T09:35:37.863Z,1.58
2022-09-15T09:38:04.465Z,1.33
2022-09-15T09:40:32.788Z,1.48
2022-09-15T09:43:01.131Z,1.63
2022-09-15T09:45:27.682Z,1.50
2022-09-15T09:48:02.175Z,1.73
2022-09-15T09:50:44.317Z,1.40
2022-09-15T09:53:33.037Z,1.30
2022-09-15T09:56:11.741Z,2.05
2022-09-15T09:58:38.391Z,1.80
2022-09-15T10:01:16.923Z,1.27
2022-09-15T10:03:45.179Z,1.33
2022-09-15T10:06:24.947Z,1.40
2022-09-15T10:08:59.983Z,1.50
2022-09-15T10:11:43.968Z,1.52
2022-09-15T10:14:21.020Z,1.50
2022-09-15T10:17:09.037Z,1.20
2022-09-15T10:19:56.160Z,1.30
2022-09-15T10:22:24.937Z,1.10
2022-09-15T10:24:51.519Z,0.90
2022-09-15T10:27:33.959Z,0.60
2022-09-15T10:30:20.995Z,0.90
2022-09-15T10:32:48.591Z,0.70
2022-09-15T10:35:20.379Z,0.70
2022-09-15T10:38:20.013Z,0.57
2022-09-15T10:40:56.149Z,0.65
2022-09-15T10:43:47.319Z,0.60
2022-09-15T10:46:39.275Z,0.60
2022-09-15T10:49:21.389Z,0.85
2022-09-15T10:51:54.405Z,0.60
2022-09-15T10:54:48.760Z,0.85
2022-09-15T10:57:31.945Z,0.57
2022-09-15T11:00:20.956Z,0.50
2022-09-15T11:03:07.661Z,0.60
2022-09-15T11:05:54.984Z,0.60
2022-09-15T11:08:59.710Z,0.80
2022-09-15T11:11:40.380Z,0.60
2022-09-15T11:17:11.212Z,0.68
2022-09-15T11:20:17.393Z,0.52
2022-09-15T11:22:55.588Z,0.52
2022-09-15T11:25:45.205Z,0.50
2022-09-15T11:28:15.459Z,0.50
2022-09-15T11:30:49.430Z,0.52
2022-09-15T11:33:19.166Z,0.70
2022-09-15T11:35:56.868Z,0.80
2022-09-15T11:38:38.507Z,0.80
2022-09-15T11:41:18.895Z,0.85
2022-09-15T11:43:55.221Z,1.02
2022-09-15T11:46:30.716Z,0.85
2022-09-15T11:49:12.578Z,0.82
2022-09-15T11:51:46.428Z,0.85
2022-09-15T11:54:21.085Z,0.63
2022-09-15T11:56:48.536Z,0.63
2022-09-15T11:59:39.142Z,0.70
2022-09-15T12:02:20.118Z,0.57
2022-09-15T12:05:11.304Z,0.70
2022-09-15T12:07:45.796Z,0.93
2022-09-15T12:10:21.696Z,0.60
2022-09-15T12:12:51.470Z,0.73
2022-09-15T12:15:26.998Z,0.70
2022-09-15T12:18:37.428Z,0.95
2022-09-15T12:21:14.535Z,0.80
2022-09-15T12:23:47.901Z,0.90
2022-09-15T12:26:24.463Z,0.70
2022-09-15T12:29:02.454Z,0.95
2022-09-15T12:31:30.799Z,1.25
2022-09-15T12:34:00.380Z,0.85
2022-09-15T12:36:29.880Z,1.08
2022-09-15T12:38:56.915Z,1.00
2022-09-15T12:41:23.428Z,0.77
2022-09-15T12:43:59.131Z,1.23
2022-09-15T12:46:26.179Z,0.90
2022-09-15T12:48:59.532Z,0.73
2022-09-15T12:51:29.139Z,0.77
2022-09-15T12:54:00.794Z,0.80
2022-09-15T12:56:29.422Z,1.13
2022-09-15T12:58:56.328Z,1.13
2022-09-15T13:01:25.587Z,0.80
2022-09-15T13:03:55.303Z,1.20
2022-09-15T13:06:25.966Z,0.98
2022-09-15T13:08:55.085Z,1.00
2022-09-15T13:11:29.730Z,1.25
2022-09-15T13:14:08.510Z,1.38
2022-09-15T13:16:41.275Z,1.05
2022-09-15T13:19:20.944Z,1.75
2022-09-15T13:21:57.292Z,0.77
2022-09-15T13:24:41.861Z,1.10
2022-09-15T13:27:09.251Z,1.27
2022-09-15T13:30:07.676Z,1.40
2022-09-15T13:32:55.362Z,2.05
2022-09-15T13:36:05.131Z,1.45
2022-09-15T13:38:44.302Z,1.45
2022-09-15T13:41:33.236Z,1.13
2022-09-15T13:44:31.985Z,1.30
2022-09-15T13:47:01.360Z,1.27
2022-09-15T13:49:50.194Z,1.30
2022-09-15T13:52:22.171Z,1.20
2022-09-15T13:55:26.309Z,1.30
2022-09-15T14:00:55.678Z,1.55
2022-09-15T14:03:47.890Z,1.52
2022-09-15T14:06:19.578Z,1.50
2022-09-15T14:08:51.951Z,1.70
2022-09-15T14:11:24.904Z,1.00
2022-09-15T14:13:51.972Z,1.15
2022-09-15T14:16:30.639Z,1.10
2022-09-15T14:18:58.526Z,0.60
2022-09-15T14:21:26.010Z,0.85
2022-09-15T14:23:55.054Z,0.60
2022-09-15T14:26:25.046Z,0.77
2022-09-15T14:28:56.102Z,0.65
2022-09-15T14:31:41.020Z,0.68
2022-09-15T14:34:17.188Z,0.60
2022-09-15T14:36:43.822Z,0.73
2022-09-15T14:39:21.972Z,0.50
2022-09-15T14:41:50.160Z,0.57
2022-09-15T14:47:20.842Z,0.52
2022-09-15T14:49:47.934Z,0.60
2022-09-15T14:52:24.975Z,0.70
2022-09-15T14:55:00.129Z,0.70
2022-09-15T14:57:31.320Z,0.75
2022-09-15T15:00:03.606Z,0.73
2022-09-15T15:02:47.273Z,0.82
2022-09-15T15:05:21.995Z,0.70
2022-09-15T15:07:49.388Z,0.60
2022-09-15T15:10:21.450Z,0.70
2022-09-15T15:12:52.476Z,0.70
2022-09-15T15:15:19.553Z,0.55
2022-09-15T15:17:49.755Z,0.50
2022-09-15T15:20:23.850Z,0.75
2022-09-15T15:23:25.815Z,0.70
2022-09-15T15:25:53.129Z,0.50
2022-09-15T15:28:35.929Z,0.63
2022-09-15T15:31:26.920Z,0.60
2022-09-15T15:33:59.067Z,0.60
2022-09-15T15:36:28.537Z,0.70
2022-09-15T15:39:00.584Z,1.00
2022-09-15T15:41:30.121Z,0.73
2022-09-15T15:44:07.717Z,0.73
2022-09-15T15:47:00.256Z,0.50
2022-09-15T15:49:29.300Z,0.47
2022-09-15T15:51:57.901Z,0.60
2022-09-15T15:54:25.265Z,0.60
2022-09-15T15:56:53.014Z,0.80
2022-09-15T15:59:19.532Z,0.60
2022-09-15T16:01:51.755Z,0.70
2022-09-15T16:04:18.607Z,0.70
2022-09-15T16:06:46.169Z,0.88
2022-09-15T16:09:15.648Z,0.68
2022-09-15T16:11:42.999Z,0.50
2022-09-15T16:14:13.433Z,1.20
2022-09-15T16:16:39.914Z,0.82
2022-09-15T16:19:06.442Z,0.70
2022-09-15T16:21:39.946Z,0.68
2022-09-15T16:24:11.568Z,0.50
2022-09-15T16:26:39.353Z,0.70
2022-09-15T16:29:05.915Z,0.60
2022-09-15T16:31:33.324Z,0.70
2022-09-15T16:34:00.021Z,0.90
2022-09-15T16:36:27.170Z,0.65
2022-09-15T16:38:53.752Z,0.47
2022-09-15T16:41:28.478Z,0.55
2022-09-15T16:43:57.814Z,0.75
2022-09-15T16:46:24.329Z,0.70
2022-09-15T16:48:50.960Z,0.70
2022-09-15T16:51:27.364Z,0.60
2022-09-15T16:53:56.104Z,0.68
2022-09-15T16:56:22.763Z,0.93
2022-09-15T16:58:49.369Z,0.90
2022-09-15T17:01:18.499Z,1.08
2022-09-15T17:03:45.273Z,1.02
2022-09-15T17:06:18.258Z,1.00
2022-09-15T17:08:45.355Z,0.80
2022-09-15T17:11:17.468Z,0.85
2022-09-15T17:13:44.492Z,0.70
2022-09-15T17:16:13.871Z,0.70
2022-09-15T17:18:40.566Z,0.65
2022-09-15T17:21:07.490Z,0.70
2022-09-15T17:23:38.932Z,0.50
2022-09-15T17:26:12.127Z,0.80
2022-09-15T17:28:39.524Z,0.85
2022-09-15T17:31:13.493Z,0.50
2022-09-15T17:33:40.212Z,0.80
2022-09-15T17:36:07.060Z,2.67
2022-09-15T17:38:33.544Z,1.30
2022-09-15T17:41:00.191Z,1.00
2022-09-15T17:43:29.433Z,1.05
2022-09-15T17:45:56.161Z,1.13
2022-09-15T17:48:23.348Z,1.00
2022-09-15T17:50:50.342Z,1.05
2022-09-15T17:53:21.419Z,0.98
2022-09-15T17:55:48.462Z,1.00
2022-09-15T17:58:14.925Z,1.30
2022-09-15T18:00:42.984Z,1.50
2022-09-15T18:03:22.759Z,1.10
2022-09-15T18:05:50.265Z,0.98
2022-09-15T18:08:17.174Z,0.80
2022-09-15T18:10:44.032Z,0.95
2022-09-15T18:13:15.788Z,0.80
2022-09-15T18:15:42.923Z,1.10
2022-09-15T18:18:14.566Z,0.80
2022-09-15T18:20:41.411Z,1.08
2022-09-15T18:23:12.580Z,1.00
2022-09-15T18:25:39.129Z,0.88
2022-09-15T18:28:05.571Z,0.90
2022-09-15T18:30:36.391Z,1.13
2022-09-15T18:33:03.118Z,0.90
2022-09-15T18:35:29.552Z,1.00
2022-09-15T18:37:58.705Z,1.08
2022-09-15T18:40:27.132Z,0.80
2022-09-15T18:42:54.219Z,1.05
2022-09-15T18:45:21.818Z,0.80
2022-09-15T18:47:49.930Z,0.75
2022-09-15T18:50:18.056Z,1.23
2022-09-15T18:52:44.910Z,0.75
2022-09-15T18:55:17.410Z,0.80
2022-09-15T18:57:44.140Z,0.77
2022-09-15T19:00:22.985Z,0.50
2022-09-15T19:02:49.734Z,0.63
2022-09-15T19:05:17.112Z,0.73
2022-09-15T19:07:44.714Z,0.63
2022-09-15T19:10:12.898Z,0.55
2022-09-15T19:12:39.906Z,0.80
2022-09-15T19:15:12.019Z,0.77
2022-09-15T19:17:39.356Z,0.52
2022-09-15T19:20:07.390Z,0.60
2022-09-15T19:22:35.008Z,0.45
2022-09-15T19:25:01.589Z,0.50
2022-09-15T19:27:28.318Z,0.50
2022-09-15T19:29:57.444Z,0.70
2022-09-15T19:32:24.315Z,0.50
2022-09-15T19:34:50.851Z,0.50
2022-09-15T19:37:19.710Z,0.88
2022-09-15T19:39:47.681Z,0.50
2022-09-15T19:44:47.903Z,0.98
2022-09-15T19:47:14.470Z,1.17
2022-09-15T19:49:41.115Z,0.50
2022-09-15T19:52:07.572Z,0.63
2022-09-15T20:16:02.160Z,0.47
2022-09-15T20:18:30.998Z,0.80
2022-09-15T20:20:57.396Z,0.43
2022-09-15T20:23:23.994Z,0.50
2022-09-15T20:26:02.116Z,1.20
2022-09-15T20:28:29.569Z,0.45
2022-09-15T20:31:20.011Z,0.50
2022-09-15T20:33:48.290Z,0.55
2022-09-15T20:36:18.060Z,0.30
2022-09-15T20:38:45.989Z,0.43
2022-09-15T20:41:14.461Z,0.40
2022-09-15T20:43:42.819Z,0.40
2022-09-15T20:46:13.555Z,0.57
2022-09-15T20:48:40.383Z,0.55
2022-09-15T20:51:15.342Z,0.70
2022-09-15T20:53:44.380Z,0.20
2022-09-15T20:56:11.520Z,0.35
2022-09-15T20:58:38.763Z,0.60
2022-09-15T21:01:09.777Z,0.28
2022-09-15T21:03:38.016Z,0.50
2022-09-15T21:06:13.561Z,0.57
2022-09-15T21:08:40.089Z,0.50
2022-09-15T21:11:10.305Z,0.45
2022-09-15T21:13:38.304Z,0.47
2022-09-15T21:16:07.799Z,0.30
2022-09-15T21:18:36.183Z,0.40
2022-09-15T21:21:08.732Z,0.20
2022-09-15T21:23:40.852Z,0.20
2022-09-15T21:26:09.995Z,0.20
2022-09-15T21:28:36.793Z,0.22
2022-09-15T21:31:08.686Z,0.20
2022-09-15T21:33:36.416Z,0.20
2022-09-15T21:36:14.726Z,0.30
2022-09-15T21:38:44.008Z,0.40
2022-09-15T21:41:15.982Z,0.22
2022-09-15T21:43:44.726Z,0.30
2022-09-15T21:46:14.225Z,0.40
2022-09-15T21:48:41.070Z,0.30
2022-09-15T21:51:08.581Z,0.40
2022-09-15T21:53:35.068Z,0.20
2022-09-15T21:56:03.158Z,0.90
2022-09-15T21:58:37.930Z,0.30
2022-09-15T22:01:14.138Z,0.28
2022-09-15T22:03:44.872Z,0.30
2022-09-15T22:08:39.832Z,0.30
2022-09-15T22:11:07.526Z,0.30
2022-09-15T22:13:36.409Z,0.40
2022-09-15T22:16:05.554Z,0.80
2022-09-15T22:18:32.119Z,0.50
2022-09-15T22:21:28.763Z,0.70
2022-09-15T22:23:57.486Z,0.77
2022-09-15T22:26:26.517Z,0.50
2022-09-15T22:28:53.630Z,0.40
2022-09-15T22:31:21.951Z,0.63
2022-09-15T22:33:49.198Z,0.90
2022-09-15T22:36:18.242Z,0.90
2022-09-15T22:38:45.091Z,0.60
2022-09-15T22:41:14.600Z,0.45
2022-09-15T22:43:42.384Z,0.50
2022-09-15T22:46:09.341Z,0.40
2022-09-15T22:48:40.957Z,0.50
2022-09-15T22:51:09.989Z,0.55
2022-09-15T22:53:36.537Z,0.50
2022-09-15T22:56:08.165Z,0.52
2022-09-15T22:58:35.865Z,0.40
2022-09-15T23:01:07.737Z,0.60
2022-09-15T23:03:34.206Z,0.40
2022-09-15T23:06:02.063Z,0.43
2022-09-15T23:08:29.789Z,0.50
2022-09-15T23:11:06.784Z,0.47
2022-09-15T23:13:33.812Z,0.40
2022-09-15T23:16:00.513Z,0.43
2022-09-15T23:18:27.309Z,0.38
2022-09-15T23:21:02.217Z,0.22
2022-09-15T23:23:29.488Z,0.50
2022-09-15T23:25:56.287Z,0.80
2022-09-15T23:28:23.481Z,0.30
2022-09-15T23:30:54.492Z,0.55
2022-09-15T23:33:22.345Z,0.35
2022-09-15T23:35:48.960Z,0.28
2022-09-15T23:38:16.795Z,0.52
2022-09-15T23:40:43.944Z,0.32
2022-09-15T23:43:11.234Z,0.40
2022-09-15T23:45:38.718Z,0.47
2022-09-15T23:48:06.947Z,0.30
2022-09-15T23:50:33.883Z,0.57
2022-09-15T23:53:00.340Z,0.40
2022-09-15T23:55:27.218Z,0.50
2022-09-15T23:57:54.052Z,0.22
